This is the latest recevied weather packets stored in our database for station/object S56WDN-10. If no packets are shown the sender has not sent any weather packets the latest 10 day(s).
| Time | Temp. | Humidity | Pressure | Rain* | Wind** | Luminosity | Snow |
|---|---|---|---|---|---|---|---|
| 1778150512 | 21.11° C | 58% | 1012.6 hPa | 0 mm | - | - | - |
| 1778150212 | 21.11° C | 58% | 1012.7 hPa | 0 mm | - | - | - |
| 1778149912 | 21.11° C | 58% | 1012.8 hPa | 0 mm | - | - | - |
| 1778149612 | 21.11° C | 58% | 1012.9 hPa | 0 mm | - | - | - |
| 1778149312 | 20.56° C | 58% | 1012.9 hPa | 0 mm | - | - | - |
| 1778149012 | 20.56° C | 59% | 1012.7 hPa | 0 mm | - | - | - |
| 1778148712 | 20° C | 61% | 1012.8 hPa | 0 mm | - | - | - |
| 1778148412 | 20° C | 60% | 1012.9 hPa | 0 mm | - | - | - |
| 1778148112 | 20.56° C | 58% | 1012.9 hPa | 0 mm | - | - | - |
| 1778147812 | 20.56° C | 58% | 1013 hPa | 0 mm | - | - | - |
| 1778147516 | 20.56° C | 60% | 1013.3 hPa | 0 mm | - | - | - |
| 1778147212 | 20.56° C | 60% | 1013.2 hPa | 0 mm | - | - | - |
| 1778146912 | 20.56° C | 60% | 1013.3 hPa | 0 mm | - | - | - |
| 1778146612 | 20.56° C | 60% | 1013 hPa | 0 mm | - | - | - |
| 1778146312 | 20.56° C | 60% | 1013.1 hPa | 0 mm | - | - | - |
| 1778146012 | 21.11° C | 61% | 1013.2 hPa | 0 mm | - | - | - |
| 1778145712 | 20.56° C | 61% | 1013.2 hPa | 0 mm | - | - | - |
| 1778145412 | 20.56° C | 62% | 1013.2 hPa | 0 mm | - | - | - |
| 1778145112 | 20.56° C | 63% | 1013.2 hPa | 0 mm | - | - | - |
| 1778144812 | 20° C | 66% | 1013.3 hPa | 0 mm | - | - | - |
| 1778144512 | 20° C | 66% | 1013.1 hPa | 0 mm | - | - | - |
| 1778144212 | 18.89° C | 69% | 1013.2 hPa | 0 mm | - | - | - |
| 1778143912 | 18.89° C | 70% | 1013.2 hPa | 0 mm | - | - | - |
| 1778143612 | 18.33° C | 72% | 1013.2 hPa | 0 mm | - | - | - |
| 1778143312 | 17.78° C | 73% | 1013.3 hPa | 0 mm | - | - | - |
* Rain latest hour (hover to see other rain measurements)
** Current wind speed in m/s (hover to see current wind gust speed)